Eastside, Oregon
Current Conditions -  °F | °C
As of 6:55 AM on Thursday 30 Oct 2014 (Local Time) from KOTH Reporting Station
Overcast Overcast  
Wind Chill: 59°   Ceiling: 1000
Heat Index: 59°   Visibility: 5mi
Dew Point: 59°   Wind: 3mph
Humidity: 100%   Direction: 120°ESE
Pressure: 29.88"   Gusts: NA
Location:  43.3057°N, 124.056°W
Report Text: KOTH 301355Z 12003KT 5SM BKN010 OVC035 15/15 A2988 RMK AO1 P0002
Loading
Personal Weather Stations






























Interactive Weather Map
Tropical Storm Tracking
New forecast layout! Learn more

10-Day Weather Forecast

Advertisements
Track Severe Weather on mobile